sensor_id;sensor_type;location;lat;lon;timestamp;pressure;altitude;pressure_sealevel;temperature
24278;BMP280;12394;42.692;23.314;2022-11-15T00:02:05;95598.06;;;6.08
24278;BMP280;12394;42.692;23.314;2022-11-15T00:04:30;95593.25;;;6.10
24278;BMP280;12394;42.692;23.314;2022-11-15T00:06:56;95589.06;;;6.05
24278;BMP280;12394;42.692;23.314;2022-11-15T00:09:21;95589.16;;;6.09
24278;BMP280;12394;42.692;23.314;2022-11-15T00:11:46;95576.63;;;5.95
24278;BMP280;12394;42.692;23.314;2022-11-15T00:14:12;95587.88;;;5.99
24278;BMP280;12394;42.692;23.314;2022-11-15T00:16:37;95590.72;;;5.94
24278;BMP280;12394;42.692;23.314;2022-11-15T00:19:02;95589.59;;;5.95
24278;BMP280;12394;42.692;23.314;2022-11-15T00:21:28;95589.59;;;5.95
24278;BMP280;12394;42.692;23.314;2022-11-15T00:23:53;95580.72;;;5.96
24278;BMP280;12394;42.692;23.314;2022-11-15T00:26:19;95581.50;;;5.97
24278;BMP280;12394;42.692;23.314;2022-11-15T00:28:44;95577.88;;;6.01
24278;BMP280;12394;42.692;23.314;2022-11-15T00:31:12;95584.16;;;6.00
24278;BMP280;12394;42.692;23.314;2022-11-15T00:33:38;95566.66;;;5.97
24278;BMP280;12394;42.692;23.314;2022-11-15T00:36:05;95570.78;;;5.98
24278;BMP280;12394;42.692;23.314;2022-11-15T00:38:32;95567.09;;;5.99
24278;BMP280;12394;42.692;23.314;2022-11-15T00:40:58;95570.41;;;6.00
24278;BMP280;12394;42.692;23.314;2022-11-15T00:43:24;95569.25;;;5.97
24278;BMP280;12394;42.692;23.314;2022-11-15T00:45:50;95569.53;;;5.92
24278;BMP280;12394;42.692;23.314;2022-11-15T00:48:15;95558.97;;;5.85
24278;BMP280;12394;42.692;23.314;2022-11-15T00:50:40;95573.44;;;5.86
24278;BMP280;12394;42.692;23.314;2022-11-15T00:53:06;95564.66;;;5.91
24278;BMP280;12394;42.692;23.314;2022-11-15T00:55:31;95558.66;;;5.87
24278;BMP280;12394;42.692;23.314;2022-11-15T00:57:57;95558.75;;;5.90
24278;BMP280;12394;42.692;23.314;2022-11-15T01:00:22;95553.13;;;5.88
24278;BMP280;12394;42.692;23.314;2022-11-15T01:02:48;95554.97;;;5.88
24278;BMP280;12394;42.692;23.314;2022-11-15T01:05:13;95560.47;;;5.86
24278;BMP280;12394;42.692;23.314;2022-11-15T01:07:38;95558.47;;;5.79
24278;BMP280;12394;42.692;23.314;2022-11-15T01:10:05;95557.84;;;5.67
24278;BMP280;12394;42.692;23.314;2022-11-15T01:12:30;95558.09;;;5.62
24278;BMP280;12394;42.692;23.314;2022-11-15T01:14:56;95548.16;;;5.48
24278;BMP280;12394;42.692;23.314;2022-11-15T01:17:21;95558.47;;;5.45
24278;BMP280;12394;42.692;23.314;2022-11-15T01:19:47;95554.13;;;5.49
24278;BMP280;12394;42.692;23.314;2022-11-15T01:22:12;95557.09;;;5.51
24278;BMP280;12394;42.692;23.314;2022-11-15T01:24:38;95557.09;;;5.51
24278;BMP280;12394;42.692;23.314;2022-11-15T01:27:03;95551.91;;;5.51
24278;BMP280;12394;42.692;23.314;2022-11-15T01:29:29;95553.75;;;5.50
24278;BMP280;12394;42.692;23.314;2022-11-15T01:31:54;95555.34;;;5.55
24278;BMP280;12394;42.692;23.314;2022-11-15T01:34:19;95549.06;;;5.56
24278;BMP280;12394;42.692;23.314;2022-11-15T01:36:45;95543.63;;;5.45
24278;BMP280;12394;42.692;23.314;2022-11-15T01:39:10;95548.66;;;5.54
24278;BMP280;12394;42.692;23.314;2022-11-15T01:41:35;95542.91;;;5.45
24278;BMP280;12394;42.692;23.314;2022-11-15T01:47:15;95544.81;;;5.48
24278;BMP280;12394;42.692;23.314;2022-11-15T01:49:56;95543.56;;;5.42
24278;BMP280;12394;42.692;23.314;2022-11-15T01:52:25;95547.03;;;5.30
24278;BMP280;12394;42.692;23.314;2022-11-15T01:57:25;95547.78;;;5.30
24278;BMP280;12394;42.692;23.314;2022-11-15T01:59:50;95547.78;;;5.30
24278;BMP280;12394;42.692;23.314;2022-11-15T02:02:16;95542.59;;;5.30
24278;BMP280;12394;42.692;23.314;2022-11-15T02:04:46;95549.25;;;5.31
24278;BMP280;12394;42.692;23.314;2022-11-15T02:07:15;95543.66;;;5.29
24278;BMP280;12394;42.692;23.314;2022-11-15T02:09:43;95540.25;;;5.25
24278;BMP280;12394;42.692;23.314;2022-11-15T02:12:10;95550.78;;;5.32
24278;BMP280;12394;42.692;23.314;2022-11-15T02:14:39;95549.34;;;5.35
24278;BMP280;12394;42.692;23.314;2022-11-15T02:28:45;95547.09;;;5.33
24278;BMP280;12394;42.692;23.314;2022-11-15T02:37:03;95530.84;;;5.36
24278;BMP280;12394;42.692;23.314;2022-11-15T02:39:34;95534.94;;;5.37
24278;BMP280;12394;42.692;23.314;2022-11-15T02:42:11;95527.03;;;5.30
24278;BMP280;12394;42.692;23.314;2022-11-15T02:44:58;95535.38;;;5.40
24278;BMP280;12394;42.692;23.314;2022-11-15T02:47:30;95536.88;;;5.41
24278;BMP280;12394;42.692;23.314;2022-11-15T02:50:07;95497.38;;;5.31
24278;BMP280;12394;42.692;23.314;2022-11-15T02:52:34;95530.66;;;5.45
24278;BMP280;12394;42.692;23.314;2022-11-15T02:55:00;95535.25;;;5.52
24278;BMP280;12394;42.692;23.314;2022-11-15T03:05:35;95539.47;;;5.75
24278;BMP280;12394;42.692;23.314;2022-11-15T03:08:08;95545.53;;;5.64
24278;BMP280;12394;42.692;23.314;2022-11-15T03:10:54;95533.19;;;5.42
24278;BMP280;12394;42.692;23.314;2022-11-15T03:13:29;95541.41;;;5.44
24278;BMP280;12394;42.692;23.314;2022-11-15T03:16:03;95534.38;;;5.44
24278;BMP280;12394;42.692;23.314;2022-11-15T03:18:36;95525.75;;;5.40
24278;BMP280;12394;42.692;23.314;2022-11-15T03:21:06;95529.84;;;5.41
24278;BMP280;12394;42.692;23.314;2022-11-15T03:23:34;95531.00;;;5.44
24278;BMP280;12394;42.692;23.314;2022-11-15T03:26:01;95534.69;;;5.43
24278;BMP280;12394;42.692;23.314;2022-11-15T03:28:38;95518.22;;;5.35
24278;BMP280;12394;42.692;23.314;2022-11-15T03:31:05;95529.06;;;5.41
24278;BMP280;12394;42.692;23.314;2022-11-15T03:33:54;95519.38;;;5.37
24278;BMP280;12394;42.692;23.314;2022-11-15T03:36:22;95522.16;;;5.45
24278;BMP280;12394;42.692;23.314;2022-11-15T03:38:48;95515.44;;;5.44
24278;BMP280;12394;42.692;23.314;2022-11-15T03:41:24;95503.50;;;5.39
24278;BMP280;12394;42.692;23.314;2022-11-15T03:46:41;95506.03;;;5.55
24278;BMP280;12394;42.692;23.314;2022-11-15T03:49:13;95509.53;;;5.81
24278;BMP280;12394;42.692;23.314;2022-11-15T03:51:40;95507.56;;;5.75
24278;BMP280;12394;42.692;23.314;2022-11-15T03:54:06;95486.09;;;5.59
24278;BMP280;12394;42.692;23.314;2022-11-15T03:56:31;95505.56;;;5.68
24278;BMP280;12394;42.692;23.314;2022-11-15T03:58:57;95508.25;;;5.72
24278;BMP280;12394;42.692;23.314;2022-11-15T04:01:22;95491.03;;;5.64
24278;BMP280;12394;42.692;23.314;2022-11-15T04:03:48;95505.56;;;5.68
24278;BMP280;12394;42.692;23.314;2022-11-15T04:06:13;95502.28;;;5.52
24278;BMP280;12394;42.692;23.314;2022-11-15T04:08:38;95506.47;;;5.57
24278;BMP280;12394;42.692;23.314;2022-11-15T04:11:04;95488.13;;;5.50
24278;BMP280;12394;42.692;23.314;2022-11-15T04:13:29;95496.47;;;5.59
24278;BMP280;12394;42.692;23.314;2022-11-15T04:15:55;95494.31;;;5.61
24278;BMP280;12394;42.692;23.314;2022-11-15T04:18:20;95493.63;;;5.64
24278;BMP280;12394;42.692;23.314;2022-11-15T04:20:46;95471.84;;;5.49
24278;BMP280;12394;42.692;23.314;2022-11-15T04:23:29;95489.88;;;5.61
24278;BMP280;12394;42.692;23.314;2022-11-15T04:26:18;95489.38;;;5.56
24278;BMP280;12394;42.692;23.314;2022-11-15T04:28:45;95470.97;;;5.45
24278;BMP280;12394;42.692;23.314;2022-11-15T04:31:28;95493.16;;;5.58
24278;BMP280;12394;42.692;23.314;2022-11-15T04:33:54;95487.03;;;5.51
24278;BMP280;12394;42.692;23.314;2022-11-15T04:36:20;95492.31;;;5.54
24278;BMP280;12394;42.692;23.314;2022-11-15T04:39:04;95488.97;;;5.54
24278;BMP280;12394;42.692;23.314;2022-11-15T04:41:30;95483.03;;;5.53
24278;BMP280;12394;42.692;23.314;2022-11-15T04:43:55;95487.22;;;5.58
24278;BMP280;12394;42.692;23.314;2022-11-15T04:46:21;95465.13;;;5.48
24278;BMP280;12394;42.692;23.314;2022-11-15T04:48:47;95498.16;;;5.67
24278;BMP280;12394;42.692;23.314;2022-11-15T04:51:12;95493.63;;;5.64
24278;BMP280;12394;42.692;23.314;2022-11-15T04:53:38;95498.91;;;5.67
24278;BMP280;12394;42.692;23.314;2022-11-15T04:56:03;95500.00;;;5.66
24278;BMP280;12394;42.692;23.314;2022-11-15T04:58:29;95488.84;;;5.66
24278;BMP280;12394;42.692;23.314;2022-11-15T05:00:54;95497.78;;;5.68
24278;BMP280;12394;42.692;23.314;2022-11-15T05:03:19;95494.38;;;5.64
24278;BMP280;12394;42.692;23.314;2022-11-15T05:06:04;95502.22;;;5.68
24278;BMP280;12394;42.692;23.314;2022-11-15T05:08:30;95484.69;;;5.61
24278;BMP280;12394;42.692;23.314;2022-11-15T05:10:55;95502.38;;;5.75
24278;BMP280;12394;42.692;23.314;2022-11-15T05:13:21;95486.31;;;5.69
24278;BMP280;12394;42.692;23.314;2022-11-15T05:15:46;95505.09;;;5.82
24278;BMP280;12394;42.692;23.314;2022-11-15T05:18:12;95504.66;;;5.76
24278;BMP280;12394;42.692;23.314;2022-11-15T05:20:37;95487.75;;;5.67
24278;BMP280;12394;42.692;23.314;2022-11-15T05:23:02;95491.56;;;5.73
24278;BMP280;12394;42.692;23.314;2022-11-15T05:25:28;95497.59;;;5.77
24278;BMP280;12394;42.692;23.314;2022-11-15T05:27:53;95498.28;;;5.74
24278;BMP280;12394;42.692;23.314;2022-11-15T05:30:19;95493.50;;;5.76
24278;BMP280;12394;42.692;23.314;2022-11-15T05:32:44;95487.19;;;5.77
24278;BMP280;12394;42.692;23.314;2022-11-15T05:35:15;95488.72;;;5.78
24278;BMP280;12394;42.692;23.314;2022-11-15T05:37:43;95485.72;;;5.76
24278;BMP280;12394;42.692;23.314;2022-11-15T05:40:09;95480.72;;;5.67
24278;BMP280;12394;42.692;23.314;2022-11-15T05:42:34;95476.00;;;5.73
24278;BMP280;12394;42.692;23.314;2022-11-15T05:45:02;95474.78;;;5.67
24278;BMP280;12394;42.692;23.314;2022-11-15T05:47:29;95495.75;;;5.77
24278;BMP280;12394;42.692;23.314;2022-11-15T05:49:55;95497.59;;;5.77
24278;BMP280;12394;42.692;23.314;2022-11-15T05:52:25;95484.34;;;5.82
24278;BMP280;12394;42.692;23.314;2022-11-15T05:54:53;95494.81;;;5.86
24278;BMP280;12394;42.692;23.314;2022-11-15T05:57:19;95495.53;;;5.86
24278;BMP280;12394;42.692;23.314;2022-11-15T05:59:45;95501.75;;;5.97
24278;BMP280;12394;42.692;23.314;2022-11-15T06:02:11;95497.09;;;5.87
24278;BMP280;12394;42.692;23.314;2022-11-15T06:04:36;95499.41;;;5.92
24278;BMP280;12394;42.692;23.314;2022-11-15T06:07:02;95509.47;;;5.94
24278;BMP280;12394;42.692;23.314;2022-11-15T06:09:27;95509.88;;;5.96
24278;BMP280;12394;42.692;23.314;2022-11-15T06:11:52;95508.56;;;6.05
24278;BMP280;12394;42.692;23.314;2022-11-15T06:14:18;95506.72;;;6.06
24278;BMP280;12394;42.692;23.314;2022-11-15T06:16:43;95506.25;;;6.00
24278;BMP280;12394;42.692;23.314;2022-11-15T06:19:09;95494.66;;;5.94
24278;BMP280;12394;42.692;23.314;2022-11-15T06:21:35;95516.34;;;6.05
24278;BMP280;12394;42.692;23.314;2022-11-15T06:24:00;95508.72;;;6.12
24278;BMP280;12394;42.692;23.314;2022-11-15T06:26:26;95506.13;;;6.12
24278;BMP280;12394;42.692;23.314;2022-11-15T06:28:51;95505.44;;;6.15
24278;BMP280;12394;42.692;23.314;2022-11-15T06:31:17;95503.59;;;6.16
24278;BMP280;12394;42.692;23.314;2022-11-15T06:33:42;95502.06;;;6.15
24278;BMP280;12394;42.692;23.314;2022-11-15T06:36:10;95503.69;;;6.23
24278;BMP280;12394;42.692;23.314;2022-11-15T06:38:39;95502.63;;;6.24
24278;BMP280;12394;42.692;23.314;2022-11-15T06:41:06;95498.59;;;6.27
24278;BMP280;12394;42.692;23.314;2022-11-15T06:43:32;95499.03;;;6.32
24278;BMP280;12394;42.692;23.314;2022-11-15T06:45:59;95504.03;;;6.41
24278;BMP280;12394;42.692;23.314;2022-11-15T06:48:25;95493.56;;;6.37
24278;BMP280;12394;42.692;23.314;2022-11-15T06:50:55;95479.19;;;6.20
24278;BMP280;12394;42.692;23.314;2022-11-15T06:53:22;95490.44;;;6.28
24278;BMP280;12394;42.692;23.314;2022-11-15T06:55:47;95492.94;;;6.44
24278;BMP280;12394;42.692;23.314;2022-11-15T06:58:13;95499.84;;;6.36
24278;BMP280;12394;42.692;23.314;2022-11-15T07:00:38;95500.81;;;6.28
24278;BMP280;12394;42.692;23.314;2022-11-15T07:03:04;95493.56;;;6.37
24278;BMP280;12394;42.692;23.314;2022-11-15T07:05:29;95487.91;;;6.32
24278;BMP280;12394;42.692;23.314;2022-11-15T07:07:56;95497.69;;;6.19
24278;BMP280;12394;42.692;23.314;2022-11-15T07:10:23;95496.19;;;6.18
24278;BMP280;12394;42.692;23.314;2022-11-15T07:12:50;95492.28;;;6.28
24278;BMP280;12394;42.692;23.314;2022-11-15T07:15:16;95488.75;;;6.16
24278;BMP280;12394;42.692;23.314;2022-11-15T07:17:42;95478.22;;;6.09
24278;BMP280;12394;42.692;23.314;2022-11-15T07:20:08;95486.63;;;6.22
24278;BMP280;12394;42.692;23.314;2022-11-15T07:22:33;95490.09;;;6.30
24278;BMP280;12394;42.692;23.314;2022-11-15T07:24:59;95494.22;;;6.31
24278;BMP280;12394;42.692;23.314;2022-11-15T07:27:24;95491.19;;;6.29
24278;BMP280;12394;42.692;23.314;2022-11-15T07:29:50;95497.94;;;6.33
24278;BMP280;12394;42.692;23.314;2022-11-15T07:32:15;95484.44;;;6.24
24278;BMP280;12394;42.692;23.314;2022-11-15T07:34:41;95496.44;;;6.32
24278;BMP280;12394;42.692;23.314;2022-11-15T07:37:06;95503.97;;;6.37
24278;BMP280;12394;42.692;23.314;2022-11-15T07:39:31;95499.13;;;6.36
24278;BMP280;12394;42.692;23.314;2022-11-15T07:41:57;95495.84;;;6.39
24278;BMP280;12394;42.692;23.314;2022-11-15T07:44:40;95495.13;;;6.42
24278;BMP280;12394;42.692;23.314;2022-11-15T07:47:06;95495.56;;;6.44
24278;BMP280;12394;42.692;23.314;2022-11-15T07:49:31;95499.66;;;6.45
24278;BMP280;12394;42.692;23.314;2022-11-15T07:51:57;95483.66;;;6.43
24278;BMP280;12394;42.692;23.314;2022-11-15T07:54:22;95497.50;;;6.50
24278;BMP280;12394;42.692;23.314;2022-11-15T07:56:48;95501.28;;;6.53
24278;BMP280;12394;42.692;23.314;2022-11-15T07:59:13;95476.56;;;6.40
24278;BMP280;12394;42.692;23.314;2022-11-15T08:01:38;95493.94;;;6.58
24278;BMP280;12394;42.692;23.314;2022-11-15T08:04:04;95480.78;;;6.70
24278;BMP280;12394;42.692;23.314;2022-11-15T08:06:29;95489.84;;;6.80
24278;BMP280;12394;42.692;23.314;2022-11-15T08:08:55;95500.19;;;6.99
24278;BMP280;12394;42.692;23.314;2022-11-15T08:11:20;95494.09;;;7.14
24278;BMP280;12394;42.692;23.314;2022-11-15T08:13:45;95467.97;;;7.07
24278;BMP280;12394;42.692;23.314;2022-11-15T08:16:11;95497.91;;;7.21
24278;BMP280;12394;42.692;23.314;2022-11-15T08:18:37;95489.78;;;7.26
24278;BMP280;12394;42.692;23.314;2022-11-15T08:21:03;95483.38;;;7.46
24278;BMP280;12394;42.692;23.314;2022-11-15T08:23:29;95482.28;;;7.47
24278;BMP280;12394;42.692;23.314;2022-11-15T08:26:04;95483.16;;;7.32
24278;BMP280;12394;42.692;23.314;2022-11-15T08:28:31;95488.44;;;7.35
24278;BMP280;12394;42.692;23.314;2022-11-15T08:30:56;95455.00;;;7.11
24278;BMP280;12394;42.692;23.314;2022-11-15T08:33:22;95476.53;;;7.34
24278;BMP280;12394;42.692;23.314;2022-11-15T08:35:48;95482.44;;;7.31
24278;BMP280;12394;42.692;23.314;2022-11-15T08:38:13;95479.19;;;7.38
24278;BMP280;12394;42.692;23.314;2022-11-15T08:40:39;95470.06;;;7.51
24278;BMP280;12394;42.692;23.314;2022-11-15T08:43:05;95476.50;;;7.60
24278;BMP280;12394;42.692;23.314;2022-11-15T08:45:31;95450.31;;;7.50
24278;BMP280;12394;42.692;23.314;2022-11-15T08:47:57;95465.13;;;7.72
24278;BMP280;12394;42.692;23.314;2022-11-15T08:50:22;95463.06;;;7.88
24278;BMP280;12394;42.692;23.314;2022-11-15T08:52:49;95463.81;;;7.89
24278;BMP280;12394;42.692;23.314;2022-11-15T08:55:14;95455.09;;;8.08
24278;BMP280;12394;42.692;23.314;2022-11-15T08:57:40;95468.50;;;8.10
24278;BMP280;12394;42.692;23.314;2022-11-15T09:00:06;95460.94;;;7.97
24278;BMP280;12394;42.692;23.314;2022-11-15T09:02:31;95453.03;;;8.24
24278;BMP280;12394;42.692;23.314;2022-11-15T09:04:57;95440.59;;;8.10
24278;BMP280;12394;42.692;23.314;2022-11-15T09:07:22;95447.19;;;8.00
24278;BMP280;12394;42.692;23.314;2022-11-15T09:09:48;95433.84;;;8.05
24278;BMP280;12394;42.692;23.314;2022-11-15T09:12:32;95441.75;;;8.13
24278;BMP280;12394;42.692;23.314;2022-11-15T09:14:57;95439.22;;;8.20
24278;BMP280;12394;42.692;23.314;2022-11-15T09:17:23;95438.75;;;8.11
24278;BMP280;12394;42.692;23.314;2022-11-15T09:19:48;95435.38;;;8.07
24278;BMP280;12394;42.692;23.314;2022-11-15T09:22:14;95432.06;;;8.13
24278;BMP280;12394;42.692;23.314;2022-11-15T09:24:39;95426.47;;;8.11
24278;BMP280;12394;42.692;23.314;2022-11-15T09:27:04;95429.88;;;8.19
24278;BMP280;12394;42.692;23.314;2022-11-15T09:29:30;95419.63;;;8.33
24278;BMP280;12394;42.692;23.314;2022-11-15T09:31:55;95417.81;;;8.37
24278;BMP280;12394;42.692;23.314;2022-11-15T09:34:20;95421.78;;;8.27
24278;BMP280;12394;42.692;23.314;2022-11-15T09:36:46;95375.63;;;7.87
24278;BMP280;12394;42.692;23.314;2022-11-15T09:39:11;95376.84;;;8.00
24278;BMP280;12394;42.692;23.314;2022-11-15T09:41:51;95416.50;;;8.57
24278;BMP280;12394;42.692;23.314;2022-11-15T09:47:38;95400.09;;;8.57
24278;BMP280;12394;42.692;23.314;2022-11-15T09:50:12;95386.94;;;8.42
24278;BMP280;12394;42.692;23.314;2022-11-15T09:52:42;95397.41;;;8.49
24278;BMP280;12394;42.692;23.314;2022-11-15T09:55:12;95386.06;;;8.72
24278;BMP280;12394;42.692;23.314;2022-11-15T10:05:40;95370.44;;;9.48
24278;BMP280;12394;42.692;23.314;2022-11-15T10:11:00;95375.50;;;10.73
24278;BMP280;12394;42.692;23.314;2022-11-15T10:13:31;95370.50;;;11.39
24278;BMP280;12394;42.692;23.314;2022-11-15T10:16:27;95357.72;;;12.24
24278;BMP280;12394;42.692;23.314;2022-11-15T10:19:31;95362.75;;;12.97
24278;BMP280;12394;42.692;23.314;2022-11-15T10:22:16;95328.13;;;15.17
24278;BMP280;12394;42.692;23.314;2022-11-15T10:24:45;95354.50;;;17.05
24278;BMP280;12394;42.692;23.314;2022-11-15T10:27:14;95347.84;;;18.59
24278;BMP280;12394;42.692;23.314;2022-11-15T10:29:48;95348.91;;;20.14
24278;BMP280;12394;42.692;23.314;2022-11-15T10:32:15;95348.97;;;21.36
24278;BMP280;12394;42.692;23.314;2022-11-15T10:34:41;95342.69;;;20.39
24278;BMP280;12394;42.692;23.314;2022-11-15T10:37:07;95329.97;;;20.34
24278;BMP280;12394;42.692;23.314;2022-11-15T10:39:32;95327.22;;;20.83
24278;BMP280;12394;42.692;23.314;2022-11-15T10:42:36;95323.09;;;21.09
24278;BMP280;12394;42.692;23.314;2022-11-15T10:45:01;95312.88;;;20.62
24278;BMP280;12394;42.692;23.314;2022-11-15T10:47:31;95309.78;;;20.73
24278;BMP280;12394;42.692;23.314;2022-11-15T10:50:04;95306.78;;;19.64
24278;BMP280;12394;42.692;23.314;2022-11-15T10:52:31;95295.88;;;19.18
24278;BMP280;12394;42.692;23.314;2022-11-15T10:55:19;95303.34;;;18.89
24278;BMP280;12394;42.692;23.314;2022-11-15T10:58:06;95286.66;;;18.67
24278;BMP280;12394;42.692;23.314;2022-11-15T11:00:45;95289.69;;;18.78
24278;BMP280;12394;42.692;23.314;2022-11-15T11:03:32;95282.09;;;17.82
24278;BMP280;12394;42.692;23.314;2022-11-15T11:06:06;95276.00;;;16.89
24278;BMP280;12394;42.692;23.314;2022-11-15T11:08:32;95255.38;;;17.26
24278;BMP280;12394;42.692;23.314;2022-11-15T11:11:00;95278.88;;;16.66
24278;BMP280;12394;42.692;23.314;2022-11-15T11:13:28;95265.31;;;16.64
24278;BMP280;12394;42.692;23.314;2022-11-15T11:29:52;95235.94;;;14.07
24278;BMP280;12394;42.692;23.314;2022-11-15T11:32:30;95232.63;;;13.80
24278;BMP280;12394;42.692;23.314;2022-11-15T11:35:20;95220.06;;;13.64
24278;BMP280;12394;42.692;23.314;2022-11-15T11:40:35;95213.97;;;13.71
24278;BMP280;12394;42.692;23.314;2022-11-15T11:45:59;95203.03;;;13.19
24278;BMP280;12394;42.692;23.314;2022-11-15T11:48:53;95193.09;;;13.03
24278;BMP280;12394;42.692;23.314;2022-11-15T11:51:28;95185.72;;;12.91
24278;BMP280;12394;42.692;23.314;2022-11-15T11:54:03;95189.50;;;12.90
24278;BMP280;12394;42.692;23.314;2022-11-15T11:56:36;95177.19;;;12.53
24278;BMP280;12394;42.692;23.314;2022-11-15T11:59:25;95186.22;;;12.48
24278;BMP280;12394;42.692;23.314;2022-11-15T12:01:54;95165.56;;;12.17
24278;BMP280;12394;42.692;23.314;2022-11-15T12:04:30;95172.28;;;12.21
24278;BMP280;12394;42.692;23.314;2022-11-15T12:07:03;95176.44;;;12.15
24278;BMP280;12394;42.692;23.314;2022-11-15T12:09:43;95153.00;;;11.97
24278;BMP280;12394;42.692;23.314;2022-11-15T12:12:32;95151.19;;;11.94
24278;BMP280;12394;42.692;23.314;2022-11-15T12:17:34;95154.81;;;12.04
24278;BMP280;12394;42.692;23.314;2022-11-15T12:22:54;95133.91;;;11.97
24278;BMP280;12394;42.692;23.314;2022-11-15T12:28:31;95104.25;;;11.63
24278;BMP280;12394;42.692;23.314;2022-11-15T12:31:18;95138.06;;;11.94
24278;BMP280;12394;42.692;23.314;2022-11-15T12:33:47;95131.00;;;11.88
24278;BMP280;12394;42.692;23.314;2022-11-15T12:41:15;95122.34;;;11.91
24278;BMP280;12394;42.692;23.314;2022-11-15T12:43:43;95129.84;;;11.92
24278;BMP280;12394;42.692;23.314;2022-11-15T12:46:19;95102.25;;;11.77
24278;BMP280;12394;42.692;23.314;2022-11-15T12:48:54;95112.59;;;11.91
24278;BMP280;12394;42.692;23.314;2022-11-15T12:52:03;95120.44;;;11.95
24278;BMP280;12394;42.692;23.314;2022-11-15T13:02:24;95102.31;;;11.70
24278;BMP280;12394;42.692;23.314;2022-11-15T13:04:54;95104.72;;;11.50
24278;BMP280;12394;42.692;23.314;2022-11-15T13:10:07;95095.91;;;11.30
24278;BMP280;12394;42.692;23.314;2022-11-15T13:17:38;95093.81;;;11.07
24278;BMP280;12394;42.692;23.314;2022-11-15T13:23:09;95093.81;;;11.07
24278;BMP280;12394;42.692;23.314;2022-11-15T13:30:40;95071.88;;;10.87
24278;BMP280;12394;42.692;23.314;2022-11-15T13:33:21;95073.63;;;11.04
24278;BMP280;12394;42.692;23.314;2022-11-15T13:35:53;95071.81;;;10.98
24278;BMP280;12394;42.692;23.314;2022-11-15T13:38:31;95073.00;;;10.86
24278;BMP280;12394;42.692;23.314;2022-11-15T13:40:58;95079.00;;;10.83
24278;BMP280;12394;42.692;23.314;2022-11-15T13:43:28;95077.94;;;10.74
24278;BMP280;12394;42.692;23.314;2022-11-15T13:48:29;95064.09;;;10.80
24278;BMP280;12394;42.692;23.314;2022-11-15T13:50:56;95063.72;;;10.78
24278;BMP280;12394;42.692;23.314;2022-11-15T13:53:22;95061.16;;;10.71
24278;BMP280;12394;42.692;23.314;2022-11-15T13:55:47;95069.38;;;10.69
24278;BMP280;12394;42.692;23.314;2022-11-15T13:58:13;95062.28;;;10.66
24278;BMP280;12394;42.692;23.314;2022-11-15T14:00:41;95066.81;;;10.62
24278;BMP280;12394;42.692;23.314;2022-11-15T14:05:43;95061.97;;;10.54
24278;BMP280;12394;42.692;23.314;2022-11-15T14:08:23;95063.84;;;10.50
24278;BMP280;12394;42.692;23.314;2022-11-15T14:11:18;95049.88;;;10.78
24278;BMP280;12394;42.692;23.314;2022-11-15T14:16:36;95066.56;;;12.55
24278;BMP280;12394;42.692;23.314;2022-11-15T14:19:03;95061.06;;;12.72
24278;BMP280;12394;42.692;23.314;2022-11-15T14:21:29;95050.78;;;12.85
24278;BMP280;12394;42.692;23.314;2022-11-15T14:24:14;95054.97;;;13.06
24278;BMP280;12394;42.692;23.314;2022-11-15T14:26:40;95054.22;;;13.05
24278;BMP280;12394;42.692;23.314;2022-11-15T14:29:28;95061.94;;;12.92
24278;BMP280;12394;42.692;23.314;2022-11-15T14:32:11;95059.19;;;12.73
24278;BMP280;12394;42.692;23.314;2022-11-15T14:34:37;95057.91;;;12.58
24278;BMP280;12394;42.692;23.314;2022-11-15T14:37:03;95060.69;;;12.74
24278;BMP280;12394;42.692;23.314;2022-11-15T14:39:28;95051.06;;;12.64
24278;BMP280;12394;42.692;23.314;2022-11-15T14:41:54;95048.69;;;12.46
24278;BMP280;12394;42.692;23.314;2022-11-15T14:44:19;95048.03;;;12.08
24278;BMP280;12394;42.692;23.314;2022-11-15T14:46:46;95060.88;;;11.54
24278;BMP280;12394;42.692;23.314;2022-11-15T14:49:13;95059.78;;;11.04
24278;BMP280;12394;42.692;23.314;2022-11-15T14:51:40;95056.28;;;10.69
24278;BMP280;12394;42.692;23.314;2022-11-15T14:54:09;95056.00;;;10.53
24278;BMP280;12394;42.692;23.314;2022-11-15T14:56:35;95058.38;;;10.30
24278;BMP280;12394;42.692;23.314;2022-11-15T14:59:01;95049.81;;;10.12
24278;BMP280;12394;42.692;23.314;2022-11-15T15:01:26;95053.97;;;9.92
24278;BMP280;12394;42.692;23.314;2022-11-15T15:03:52;95053.28;;;9.77
24278;BMP280;12394;42.692;23.314;2022-11-15T15:06:22;95044.75;;;9.62
24278;BMP280;12394;42.692;23.314;2022-11-15T15:08:47;95057.06;;;9.48
24278;BMP280;12394;42.692;23.314;2022-11-15T15:11:26;95050.00;;;9.23
24278;BMP280;12394;42.692;23.314;2022-11-15T15:13:53;95049.63;;;9.14
24278;BMP280;12394;42.692;23.314;2022-11-15T15:16:21;95046.63;;;9.02
24278;BMP280;12394;42.692;23.314;2022-11-15T15:18:46;95049.97;;;8.91
24278;BMP280;12394;42.692;23.314;2022-11-15T15:21:23;95054.06;;;8.78
24278;BMP280;12394;42.692;23.314;2022-11-15T15:23:49;95045.84;;;8.66
24278;BMP280;12394;42.692;23.314;2022-11-15T15:26:15;95049.22;;;8.63
24278;BMP280;12394;42.692;23.314;2022-11-15T15:28:40;95036.16;;;8.59
24278;BMP280;12394;42.692;23.314;2022-11-15T15:31:07;95041.75;;;8.61
24278;BMP280;12394;42.692;23.314;2022-11-15T15:33:32;95036.91;;;8.60
24278;BMP280;12394;42.692;23.314;2022-11-15T15:35:58;95036.16;;;8.59
24278;BMP280;12394;42.692;23.314;2022-11-15T15:38:24;95045.09;;;8.58
24278;BMP280;12394;42.692;23.314;2022-11-15T15:40:49;95038.38;;;8.50
24278;BMP280;12394;42.692;23.314;2022-11-15T15:43:15;95036.91;;;8.56
24278;BMP280;12394;42.692;23.314;2022-11-15T15:45:41;95021.25;;;8.60
24278;BMP280;12394;42.692;23.314;2022-11-15T15:48:14;95043.59;;;8.61
24278;BMP280;12394;42.692;23.314;2022-11-15T15:50:39;95022.75;;;8.54
24278;BMP280;12394;42.692;23.314;2022-11-15T15:53:05;95034.31;;;8.74
24278;BMP280;12394;42.692;23.314;2022-11-15T15:55:31;95032.47;;;8.96
24278;BMP280;12394;42.692;23.314;2022-11-15T15:57:56;95029.47;;;8.83
24278;BMP280;12394;42.692;23.314;2022-11-15T16:00:23;95025.00;;;8.80
24278;BMP280;12394;42.692;23.314;2022-11-15T16:02:50;95025.38;;;8.75
24278;BMP280;12394;42.692;23.314;2022-11-15T16:05:17;95031.72;;;8.70
24278;BMP280;12394;42.692;23.314;2022-11-15T16:07:43;95017.91;;;8.63
24278;BMP280;12394;42.692;23.314;2022-11-15T16:10:24;95037.69;;;8.67